Jenks, OK

11:33 PM CDT on May 05, 2015 (GMT -0500)
Jones Jr. | | Change Station
CLOSE
Current Station
Airport
Location: Tulsa Jones,
Elevation: 636 ft
Nearby Weather Stations

Elev 636 ft 36.04 °N, 95.98 °W | Updated 40 minutes ago

Rain
Rain
67 °F
Feels Like 67 °F
N
8
Wind Variable Wind from SSE

Today
High -- | Low -- °F
--% Chance of Precip.
Yesterday
High -- | Low -- °F
Precip. -- in
6:27 AM 8:14 PM
Waning Gibbous, 96% visible
Pressure 29.99 in
Visibility 9.0 miles
Clouds Few 4600 ft
Mostly Cloudy 6000 ft
Overcast 9000 ft
Dew Point 65 °F
Humidity 93%
Rainfall 0.27 in
Snow Depth Not available.
UV 0 out of 12
Pollen 7.40 out of 12
Air Quality Not available.
Flu Activity Local Activity
METAR KRVS 060353Z 15007KT 9SM -RA FEW046 BKN060 OVC090 19/18 A2998 RMK AO2 SLP156 P0015 T01940183

More Conditions Fewer Conditions

Pressure 29.99 in
Visibility 9.0 miles
Clouds Few 4600 ft
Mostly Cloudy 6000 ft
Overcast 9000 ft
Dew Point 65 °F
Humidity 93%
Rainfall 0.27 in
Snow Depth Not available.
UV 0 out of 12
Pollen 7.40 out of 12
Air Quality Not available.
Flu Activity Local Activity
METAR KRVS 060353Z 15007KT 9SM -RA FEW046 BKN060 OVC090 19/18 A2998 RMK AO2 SLP156 P0015 T01940183

More Conditions Fewer Conditions

Nowcast | as of 11:26 PM CDT on May 5, 2015

At 11:26 PM...scattered showers and isolated thunderstorms were advancing northward at 30 mph across eastern Oklahoma. Most of the rain and isolated thunderstorms were occurring along and to the west of Highway 75. Through 1:00 am... showers and isolated thunderstorms are expected to continue becoming more numerous over eastern Oklahoma to the east of Highway 75 as well. Average hourly rainfall rates of several hundredths of an inch are anticipated... mainly west of Highway 75 and south of I 40. The strongest showers or thunderstorms however... may produce a tenth to over a quarter of an inch.

×

10-Day Weather Forecast

Almanac

Astronomy

May. 05, 2015 Rise Set
Actual Time
Civil Twilight
Nautical Twilight
Astronomical Twilight
Moon
Length of Visible Light
Length of Day
Tomorrow will be .
, % of the Moon is Illuminated

Today's Extremes

State Highs State Lows

Community

WunderPhotos

Upload Photos

1,818,932 photos uploaded!

WunderBlogs® & News

Nearby

Air Quality

  Air Quality AQ Index Pollutant
Not available.

Snow Depth

Station Depth Elevation

Earthquake Activity

City Distance Mag. Time & Date
Minimum magnitude displayed is 2.5.

Coastal Water Temperatures

Place Temperature

Stations

Nearby Weather Stations

Station Location Temp. Windchill Dew Point Humidity Wind Precip. Elev Updated Type